createdAt,value
2022-09-21T00:01:09.890Z,0.82
2022-09-21T00:03:37.178Z,1.10
2022-09-21T00:06:08.815Z,1.20
2022-09-21T00:08:35.753Z,1.05
2022-09-21T00:11:03.889Z,1.00
2022-09-21T00:13:31.334Z,0.77
2022-09-21T00:15:57.873Z,0.60
2022-09-21T00:18:25.698Z,1.05
2022-09-21T00:20:55.007Z,0.90
2022-09-21T00:23:21.573Z,0.55
2022-09-21T00:25:48.238Z,0.60
2022-09-21T00:28:15.004Z,0.70
2022-09-21T00:30:41.625Z,0.60
2022-09-21T00:33:08.135Z,0.50
2022-09-21T00:35:34.874Z,0.55
2022-09-21T00:38:02.622Z,1.25
2022-09-21T00:40:30.435Z,0.57
2022-09-21T00:43:17.286Z,0.52
2022-09-21T00:45:47.328Z,0.50
2022-09-21T00:48:15.323Z,0.38
2022-09-21T00:50:48.981Z,0.55
2022-09-21T00:53:16.143Z,0.60
2022-09-21T00:55:47.450Z,0.40
2022-09-21T00:58:20.841Z,0.35
2022-09-21T01:00:47.461Z,0.30
2022-09-21T01:03:14.097Z,0.40
2022-09-21T01:05:40.974Z,0.20
2022-09-21T01:08:11.403Z,0.55
2022-09-21T01:11:11.124Z,0.30
2022-09-21T01:13:47.343Z,0.20
2022-09-21T01:16:25.165Z,0.40
2022-09-21T01:19:34.783Z,0.30
2022-09-21T01:22:05.839Z,0.30
2022-09-21T01:25:09.715Z,0.30
2022-09-21T01:27:53.710Z,0.30
2022-09-21T01:30:23.173Z,0.40
2022-09-21T01:33:01.519Z,0.30
2022-09-21T01:35:34.634Z,0.20
2022-09-21T01:38:12.762Z,0.30
2022-09-21T01:40:43.558Z,0.35
2022-09-21T01:43:19.051Z,0.77
2022-09-21T01:45:49.710Z,0.20
2022-09-21T01:48:18.674Z,0.30
2022-09-21T01:50:50.667Z,0.52
2022-09-21T01:53:33.576Z,0.20
2022-09-21T01:56:10.162Z,0.30
2022-09-21T01:58:46.427Z,0.20
2022-09-21T02:01:17.346Z,0.30
2022-09-21T02:03:49.853Z,0.60
2022-09-21T02:06:17.857Z,0.40
2022-09-21T02:08:44.958Z,0.40
2022-09-21T02:11:13.413Z,0.50
2022-09-21T02:13:45.099Z,0.30
2022-09-21T02:16:32.674Z,0.28
2022-09-21T02:19:11.207Z,0.45
2022-09-21T02:21:41.598Z,0.60
2022-09-21T02:24:21.840Z,0.40
2022-09-21T02:27:03.367Z,0.32
2022-09-21T02:30:15.281Z,0.47
2022-09-21T02:32:57.415Z,0.40
2022-09-21T02:35:39.654Z,0.40
2022-09-21T02:38:26.469Z,0.30
2022-09-21T02:41:03.419Z,0.30
2022-09-21T02:43:39.289Z,0.40
2022-09-21T02:46:16.189Z,0.40
2022-09-21T02:48:52.751Z,0.22
2022-09-21T02:51:33.996Z,0.40
2022-09-21T02:54:06.489Z,0.40
2022-09-21T02:56:33.750Z,0.63
2022-09-21T02:59:04.601Z,0.30
2022-09-21T03:01:32.837Z,0.40
2022-09-21T03:03:59.404Z,0.50
2022-09-21T03:06:26.851Z,0.55
2022-09-21T03:08:53.318Z,0.20
2022-09-21T03:11:20.267Z,0.63
2022-09-21T03:13:46.691Z,0.30
2022-09-21T03:16:13.653Z,0.60
2022-09-21T03:18:40.390Z,0.28
2022-09-21T03:21:07.001Z,0.30
2022-09-21T03:23:33.405Z,0.43
2022-09-21T03:25:59.817Z,0.35
2022-09-21T03:28:26.629Z,0.47
2022-09-21T03:30:53.105Z,0.40
2022-09-21T03:33:20.398Z,0.20
2022-09-21T03:35:50.276Z,0.40
2022-09-21T03:38:16.857Z,0.28
2022-09-21T03:40:46.948Z,0.30
2022-09-21T03:43:13.589Z,0.20
2022-09-21T03:45:42.019Z,0.20
2022-09-21T03:48:10.475Z,0.20
2022-09-21T03:50:37.830Z,0.30
2022-09-21T03:53:04.495Z,0.30
2022-09-21T03:55:31.111Z,0.35
2022-09-21T03:57:57.465Z,0.20
2022-09-21T04:00:23.952Z,0.20
2022-09-21T04:02:50.353Z,0.22
2022-09-21T04:05:17.478Z,0.20
2022-09-21T04:07:47.987Z,0.70
2022-09-21T04:10:17.651Z,0.65
2022-09-21T04:12:45.108Z,0.20
2022-09-21T04:15:13.283Z,0.20
2022-09-21T04:17:40.126Z,0.53
2022-09-21T04:20:08.688Z,0.20
2022-09-21T04:22:39.979Z,0.20
2022-09-21T04:25:10.561Z,0.20
2022-09-21T04:27:37.018Z,0.20
2022-09-21T04:30:04.288Z,0.20
2022-09-21T04:32:30.703Z,0.13
2022-09-21T04:34:57.358Z,0.10
2022-09-21T04:37:24.059Z,0.10
2022-09-21T04:39:50.541Z,0.10
2022-09-21T04:42:16.942Z,0.20
2022-09-21T04:44:43.467Z,0.13
2022-09-21T04:47:09.906Z,0.20
2022-09-21T04:49:36.353Z,0.10
2022-09-21T04:52:03.137Z,0.20
2022-09-21T04:54:29.610Z,0.10
2022-09-21T04:56:56.091Z,0.20
2022-09-21T04:59:22.579Z,0.40
2022-09-21T05:01:49.164Z,0.17
2022-09-21T05:04:16.107Z,0.20
2022-09-21T05:06:42.574Z,0.20
2022-09-21T05:09:27.463Z,0.13
2022-09-21T05:11:54.101Z,0.10
2022-09-21T05:14:20.536Z,0.10
2022-09-21T05:16:49.641Z,0.10
2022-09-21T05:19:17.232Z,0.10
2022-09-21T05:21:43.783Z,0.10
2022-09-21T05:24:10.228Z,0.10
2022-09-21T05:26:36.691Z,0.17
2022-09-21T05:29:03.655Z,0.20
2022-09-21T05:31:39.345Z,0.20
2022-09-21T05:34:21.097Z,0.20
2022-09-21T05:37:07.681Z,0.10
2022-09-21T05:39:34.362Z,0.50
2022-09-21T05:42:01.195Z,0.80
2022-09-21T05:44:27.895Z,0.10
2022-09-21T05:47:21.805Z,0.10
2022-09-21T05:49:48.147Z,0.10
2022-09-21T05:52:20.611Z,0.10
2022-09-21T05:55:06.112Z,0.20
2022-09-21T05:57:45.271Z,1.07
2022-09-21T06:00:19.148Z,1.02
2022-09-21T06:03:16.857Z,0.82
2022-09-21T06:05:44.307Z,0.30
2022-09-21T06:08:10.779Z,0.20
2022-09-21T06:10:37.273Z,0.50
2022-09-21T06:13:03.810Z,0.32
2022-09-21T06:15:30.390Z,0.57
2022-09-21T06:17:59.105Z,0.20
2022-09-21T06:20:25.611Z,0.82
2022-09-21T06:22:52.243Z,0.50
2022-09-21T06:25:20.315Z,0.20
2022-09-21T06:27:46.827Z,0.30
2022-09-21T06:30:13.353Z,0.30
2022-09-21T06:32:39.799Z,0.20
2022-09-21T06:35:06.555Z,0.30
2022-09-21T06:37:32.963Z,0.20
2022-09-21T06:39:59.483Z,0.82
2022-09-21T06:42:27.438Z,0.40
2022-09-21T06:44:53.802Z,0.55
2022-09-21T06:47:20.222Z,0.77
2022-09-21T06:49:46.676Z,0.50
2022-09-21T06:52:13.078Z,0.57
2022-09-21T06:54:41.097Z,2.78
2022-09-21T06:57:07.893Z,1.55
2022-09-21T06:59:34.344Z,1.00
2022-09-21T07:02:00.846Z,1.23
2022-09-21T07:04:29.360Z,0.63
2022-09-21T07:06:55.835Z,0.70
2022-09-21T07:12:09.074Z,0.90
2022-09-21T07:14:35.463Z,1.00
2022-09-21T07:17:02.327Z,0.95
2022-09-21T07:19:28.914Z,0.70
2022-09-21T07:21:55.845Z,0.57
2022-09-21T07:24:22.448Z,0.67
2022-09-21T07:26:49.318Z,0.55
2022-09-21T07:29:15.660Z,1.23
2022-09-21T07:31:45.170Z,0.82
2022-09-21T07:34:12.518Z,0.80
2022-09-21T07:36:38.863Z,0.82
2022-09-21T07:39:05.568Z,0.75
2022-09-21T07:41:32.192Z,0.90
2022-09-21T07:43:58.646Z,1.08
2022-09-21T07:46:27.044Z,1.20
2022-09-21T07:48:54.753Z,1.30
2022-09-21T07:51:21.283Z,1.35
2022-09-21T07:53:47.756Z,1.35
2022-09-21T07:56:17.724Z,1.10
2022-09-21T07:59:02.828Z,1.33
2022-09-21T08:01:30.117Z,0.65
2022-09-21T08:03:58.082Z,1.20
2022-09-21T08:06:27.091Z,1.35
2022-09-21T08:08:57.463Z,0.95
2022-09-21T08:11:27.643Z,1.10
2022-09-21T08:14:02.145Z,1.83
2022-09-21T08:16:30.655Z,1.13
2022-09-21T08:18:57.551Z,1.50
2022-09-21T08:21:24.300Z,1.13
2022-09-21T08:23:50.686Z,0.77
2022-09-21T08:26:19.779Z,0.85
2022-09-21T08:28:51.739Z,0.80
2022-09-21T08:31:24.285Z,1.02
2022-09-21T08:33:51.679Z,0.77
2022-09-21T08:36:19.104Z,0.85
2022-09-21T08:38:46.027Z,0.75
2022-09-21T08:41:23.784Z,0.50
2022-09-21T08:43:55.421Z,0.50
2022-09-21T08:46:28.975Z,0.38
2022-09-21T08:49:11.314Z,0.70
2022-09-21T08:51:46.944Z,0.40
2022-09-21T08:54:19.395Z,0.50
2022-09-21T08:57:04.590Z,0.50
2022-09-21T08:59:32.074Z,0.55
2022-09-21T09:02:14.798Z,2.20
2022-09-21T09:05:06.462Z,1.60
2022-09-21T09:08:25.079Z,0.77
2022-09-21T09:10:54.724Z,0.90
2022-09-21T09:13:27.209Z,0.50
2022-09-21T09:15:58.474Z,0.50
2022-09-21T09:18:52.840Z,0.30
2022-09-21T09:21:40.669Z,0.47
2022-09-21T09:24:15.824Z,0.73
2022-09-21T09:27:05.548Z,0.63
2022-09-21T09:29:52.823Z,0.65
2022-09-21T09:32:25.081Z,0.10
2022-09-21T09:35:00.642Z,0.30
2022-09-21T09:37:32.782Z,0.40
2022-09-21T09:40:01.247Z,0.20
2022-09-21T09:42:36.449Z,0.28
2022-09-21T09:45:15.002Z,0.20
2022-09-21T09:47:50.484Z,0.33
2022-09-21T09:50:25.351Z,0.20
2022-09-21T09:52:57.017Z,0.30
2022-09-21T09:55:26.790Z,0.40
2022-09-21T09:57:56.471Z,0.22
2022-09-21T10:00:23.172Z,0.17
2022-09-21T10:02:58.622Z,0.40
2022-09-21T10:05:31.748Z,0.13
2022-09-21T10:07:58.533Z,0.32
2022-09-21T10:10:36.988Z,0.22
2022-09-21T10:13:22.076Z,0.40
2022-09-21T10:15:54.554Z,0.20
2022-09-21T10:18:24.024Z,0.40
2022-09-21T10:21:06.815Z,0.30
2022-09-21T10:23:35.189Z,0.28
2022-09-21T10:26:13.782Z,0.53
2022-09-21T10:28:56.882Z,0.30
2022-09-21T10:31:24.972Z,0.40
2022-09-21T10:34:07.512Z,0.20
2022-09-21T10:36:36.272Z,0.50
2022-09-21T10:39:17.580Z,0.40
2022-09-21T10:41:49.175Z,0.65
2022-09-21T10:44:18.876Z,0.22
2022-09-21T10:46:47.415Z,0.88
2022-09-21T10:49:23.671Z,0.40
2022-09-21T10:51:53.348Z,0.43
2022-09-21T10:54:25.722Z,0.20
2022-09-21T10:57:16.578Z,0.20
2022-09-21T10:59:44.488Z,0.20
2022-09-21T11:02:35.786Z,0.45
2022-09-21T11:05:14.204Z,0.30
2022-09-21T11:08:13.595Z,0.30
2022-09-21T11:11:14.203Z,1.10
2022-09-21T11:14:00.973Z,0.20
2022-09-21T11:16:41.731Z,0.38
2022-09-21T11:19:37.970Z,0.60
2022-09-21T11:22:07.357Z,0.50
2022-09-21T11:24:56.847Z,0.32
2022-09-21T11:27:37.256Z,0.30
2022-09-21T11:30:11.346Z,0.30
2022-09-21T11:32:46.734Z,0.10
2022-09-21T11:35:31.020Z,0.50
2022-09-21T11:38:04.485Z,0.13
2022-09-21T11:40:36.304Z,0.40
2022-09-21T11:43:24.073Z,0.30
2022-09-21T11:45:50.809Z,0.60
2022-09-21T11:48:32.781Z,0.10
2022-09-21T11:51:24.358Z,0.20
2022-09-21T11:54:26.037Z,0.20
2022-09-21T11:57:20.156Z,0.32
2022-09-21T12:00:05.290Z,0.73
2022-09-21T12:02:44.517Z,0.20
2022-09-21T12:05:24.247Z,0.20
2022-09-21T12:08:09.471Z,0.20
2022-09-21T12:10:43.303Z,0.20
2022-09-21T12:13:28.116Z,0.40
2022-09-21T12:16:21.481Z,0.20
2022-09-21T12:19:23.911Z,0.30
2022-09-21T12:21:56.683Z,0.20
2022-09-21T12:24:32.036Z,0.20
2022-09-21T12:27:03.831Z,0.77
2022-09-21T12:29:47.521Z,0.30
2022-09-21T12:32:27.014Z,1.70
2022-09-21T12:34:57.452Z,0.20
2022-09-21T12:37:27.212Z,0.20
2022-09-21T12:40:02.713Z,0.30
2022-09-21T12:42:38.954Z,0.40
2022-09-21T12:45:17.719Z,0.38
2022-09-21T12:47:58.066Z,0.13
2022-09-21T12:50:44.808Z,0.20
2022-09-21T12:53:19.658Z,0.23
2022-09-21T12:56:20.167Z,0.10
2022-09-21T12:59:09.886Z,0.20
2022-09-21T13:01:56.937Z,0.20
2022-09-21T13:04:49.781Z,0.20
2022-09-21T13:07:41.259Z,0.33
2022-09-21T13:10:28.705Z,1.27
2022-09-21T13:13:02.063Z,0.22
2022-09-21T13:15:32.215Z,0.10
2022-09-21T13:17:59.970Z,0.28
2022-09-21T13:20:27.918Z,0.10
2022-09-21T13:23:02.867Z,0.20
2022-09-21T13:25:32.514Z,0.10
2022-09-21T13:28:09.253Z,0.10
2022-09-21T13:30:45.520Z,0.25
2022-09-21T13:33:17.916Z,1.23
2022-09-21T13:35:50.285Z,0.20
2022-09-21T13:38:44.630Z,1.10
2022-09-21T13:41:17.337Z,0.22
2022-09-21T13:43:58.551Z,0.20
2022-09-21T13:46:36.663Z,0.20
2022-09-21T13:49:02.982Z,0.25
2022-09-21T13:51:33.292Z,0.30
2022-09-21T13:54:02.571Z,0.20
2022-09-21T13:56:33.252Z,0.10
2022-09-21T13:59:00.026Z,0.20
2022-09-21T14:01:51.248Z,0.20
2022-09-21T14:04:24.331Z,0.38
2022-09-21T14:06:54.248Z,0.20
2022-09-21T14:09:29.116Z,0.20
2022-09-21T14:11:59.478Z,0.20
2022-09-21T14:14:43.552Z,0.28
2022-09-21T14:17:41.772Z,0.28
2022-09-21T14:20:30.814Z,0.20
2022-09-21T14:23:24.090Z,0.28
2022-09-21T14:25:58.981Z,0.10
2022-09-21T14:28:42.226Z,0.20
2022-09-21T14:31:20.705Z,0.20
2022-09-21T14:33:55.649Z,0.20
2022-09-21T14:36:31.363Z,0.10
2022-09-21T14:39:01.700Z,0.20
2022-09-21T14:41:37.930Z,0.20
2022-09-21T14:44:04.868Z,0.20
2022-09-21T14:46:52.806Z,0.50
2022-09-21T14:49:54.041Z,0.85
2022-09-21T14:52:42.718Z,0.40
2022-09-21T14:55:34.066Z,0.20
2022-09-21T14:58:19.053Z,0.15
2022-09-21T15:00:50.299Z,0.20
2022-09-21T15:03:29.845Z,0.20
2022-09-21T15:06:37.738Z,0.17
2022-09-21T15:10:04.757Z,0.40
2022-09-21T15:12:59.568Z,0.20
2022-09-21T15:15:32.344Z,0.65
2022-09-21T15:18:01.902Z,0.10
2022-09-21T15:20:32.183Z,0.10
2022-09-21T15:23:00.177Z,0.30
2022-09-21T15:25:31.353Z,0.20
2022-09-21T15:27:58.185Z,0.20
2022-09-21T15:30:29.265Z,0.32
2022-09-21T15:33:04.984Z,0.20
2022-09-21T15:35:32.819Z,0.20
2022-09-21T15:38:01.242Z,0.20
2022-09-21T15:40:51.148Z,0.20
2022-09-21T15:43:20.518Z,0.25
2022-09-21T15:45:54.583Z,0.20
2022-09-21T15:48:34.282Z,0.50
2022-09-21T15:51:30.846Z,0.15
2022-09-21T15:54:32.129Z,0.30
2022-09-21T15:57:08.430Z,0.52
2022-09-21T15:59:35.635Z,0.10
2022-09-21T16:02:12.285Z,0.20
2022-09-21T16:04:49.143Z,0.30
2022-09-21T16:07:36.217Z,0.20
2022-09-21T16:10:24.082Z,0.30
2022-09-21T16:12:50.576Z,0.23
2022-09-21T16:15:29.155Z,0.20
2022-09-21T16:18:06.909Z,0.20
2022-09-21T16:20:45.772Z,0.20
2022-09-21T16:23:15.902Z,0.10
2022-09-21T16:25:42.977Z,0.10
2022-09-21T16:28:18.534Z,0.20
2022-09-21T16:30:53.049Z,0.30
2022-09-21T16:33:42.666Z,0.40
2022-09-21T16:36:25.490Z,0.30
2022-09-21T16:38:56.342Z,0.30
2022-09-21T16:41:25.242Z,0.30
2022-09-21T16:43:52.288Z,0.28
2022-09-21T16:46:18.908Z,0.20
2022-09-21T16:48:45.552Z,0.17
2022-09-21T16:51:14.356Z,0.20
2022-09-21T16:53:41.336Z,0.10
2022-09-21T16:56:14.536Z,0.30
2022-09-21T16:58:43.619Z,0.13
2022-09-21T17:01:12.924Z,0.20
2022-09-21T17:03:40.242Z,0.10
2022-09-21T17:06:18.915Z,0.10
2022-09-21T17:08:49.291Z,0.10
2022-09-21T17:11:23.003Z,0.20
2022-09-21T17:13:50.327Z,0.15
2022-09-21T17:16:19.191Z,0.30
2022-09-21T17:18:46.992Z,0.20
2022-09-21T17:21:14.079Z,0.20
2022-09-21T17:23:42.017Z,0.40
2022-09-21T17:26:17.913Z,0.20
2022-09-21T17:28:45.511Z,0.20
2022-09-21T17:31:14.163Z,0.73
2022-09-21T17:33:41.344Z,0.10
2022-09-21T17:36:13.398Z,0.20
2022-09-21T17:38:39.787Z,0.30
2022-09-21T17:41:16.710Z,0.43
2022-09-21T17:43:53.958Z,0.43
2022-09-21T17:46:31.711Z,0.35
2022-09-21T17:48:58.348Z,1.10
2022-09-21T17:51:43.383Z,0.35
2022-09-21T17:54:10.199Z,0.20
2022-09-21T17:57:18.257Z,0.20
2022-09-21T17:59:54.451Z,0.20
2022-09-21T18:02:25.620Z,0.63
2022-09-21T18:04:58.026Z,0.30
2022-09-21T18:07:25.055Z,0.50
2022-09-21T18:09:51.968Z,0.55
2022-09-21T18:12:50.089Z,1.20
2022-09-21T18:15:32.660Z,0.90
2022-09-21T18:18:19.558Z,0.60
2022-09-21T18:21:03.599Z,0.60
2022-09-21T18:23:41.623Z,1.23
2022-09-21T18:26:15.277Z,0.70
2022-09-21T18:28:44.823Z,1.58
2022-09-21T18:31:44.371Z,1.20
2022-09-21T18:34:41.772Z,1.93
2022-09-21T18:37:41.162Z,1.35
2022-09-21T18:40:22.089Z,1.50
2022-09-21T18:42:59.405Z,0.35
2022-09-21T18:45:34.003Z,0.40
2022-09-21T18:48:38.673Z,1.00
2022-09-21T18:51:23.788Z,1.48
2022-09-21T18:53:53.631Z,2.28
2022-09-21T18:56:20.419Z,2.33
2022-09-21T18:58:47.076Z,1.83
2022-09-21T19:01:14.413Z,2.40
2022-09-21T19:03:43.732Z,2.15
2022-09-21T19:06:27.288Z,2.13
2022-09-21T19:09:16.539Z,3.15
2022-09-21T19:11:51.987Z,2.83
2022-09-21T19:14:38.288Z,3.17
2022-09-21T19:17:50.525Z,10.02
2022-09-21T19:20:29.334Z,4.00
2022-09-21T19:23:11.840Z,3.13
2022-09-21T19:25:49.904Z,3.47
2022-09-21T19:28:40.671Z,3.23
2022-09-21T19:31:12.969Z,3.20
2022-09-21T19:33:49.904Z,3.67
2022-09-21T19:36:17.582Z,3.25
2022-09-21T19:38:44.071Z,1.42
2022-09-21T19:41:28.619Z,1.27
2022-09-21T19:44:12.086Z,2.00
2022-09-21T19:46:50.826Z,1.20
2022-09-21T19:49:19.666Z,1.25
2022-09-21T19:51:55.869Z,1.10
2022-09-21T19:54:43.404Z,1.37
2022-09-21T19:57:35.509Z,1.45
2022-09-21T20:00:03.914Z,1.33
2022-09-21T20:02:51.821Z,1.42
2022-09-21T20:05:41.005Z,1.15
2022-09-21T20:08:33.671Z,1.10
2022-09-21T20:11:11.983Z,0.77
2022-09-21T20:14:09.180Z,0.88
2022-09-21T20:16:50.860Z,0.85
2022-09-21T20:19:33.224Z,0.70
2022-09-21T20:22:04.858Z,0.67
2022-09-21T20:24:46.631Z,0.40
2022-09-21T20:27:34.796Z,0.70
2022-09-21T20:30:02.822Z,0.68
2022-09-21T20:32:30.104Z,0.75
2022-09-21T20:34:57.380Z,0.50
2022-09-21T20:37:27.119Z,0.40
2022-09-21T20:39:54.373Z,0.40
2022-09-21T20:42:26.806Z,0.47
2022-09-21T20:44:53.949Z,0.40
2022-09-21T20:47:20.933Z,1.05
2022-09-21T20:49:48.279Z,0.50
2022-09-21T20:52:16.802Z,0.50
2022-09-21T20:54:49.506Z,0.75
2022-09-21T20:57:17.490Z,0.32
2022-09-21T20:59:44.555Z,0.50
2022-09-21T21:02:12.711Z,0.50
2022-09-21T21:04:40.068Z,1.55
2022-09-21T21:07:07.117Z,0.85
2022-09-21T21:09:33.582Z,0.93
2022-09-21T21:12:00.008Z,0.93
2022-09-21T21:14:26.540Z,1.65
2022-09-21T21:16:53.201Z,0.70
2022-09-21T21:19:19.880Z,0.80
2022-09-21T21:21:46.483Z,0.70
2022-09-21T21:24:31.549Z,1.23
2022-09-21T21:27:02.121Z,0.43
2022-09-21T21:29:30.222Z,0.40
2022-09-21T21:31:57.137Z,0.40
2022-09-21T21:34:23.555Z,0.50
2022-09-21T21:36:49.887Z,0.50
2022-09-21T21:39:16.390Z,0.80
2022-09-21T21:41:43.475Z,0.40
2022-09-21T21:44:11.460Z,0.45
2022-09-21T21:46:38.210Z,0.30
2022-09-21T21:49:04.993Z,0.20
2022-09-21T21:51:31.517Z,0.40
2022-09-21T21:53:58.057Z,0.38
2022-09-21T21:56:24.724Z,0.30
2022-09-21T21:58:53.269Z,0.30
2022-09-21T22:01:25.216Z,0.40
2022-09-21T22:03:54.214Z,0.28
2022-09-21T22:06:21.547Z,0.28
2022-09-21T22:08:48.661Z,0.30
2022-09-21T22:11:17.586Z,0.40
2022-09-21T22:13:45.729Z,0.30
2022-09-21T22:16:15.030Z,0.30
2022-09-21T22:18:42.588Z,0.30
2022-09-21T22:21:21.541Z,0.30
2022-09-21T22:23:56.523Z,0.30
2022-09-21T22:26:24.370Z,0.30
2022-09-21T22:28:56.484Z,0.30
2022-09-21T22:31:26.568Z,0.20
2022-09-21T22:33:54.524Z,0.30
2022-09-21T22:36:27.368Z,0.30
2022-09-21T22:38:54.535Z,0.30
2022-09-21T22:41:26.474Z,0.40
2022-09-21T22:43:55.441Z,0.30
2022-09-21T22:46:23.007Z,0.50
2022-09-21T22:48:49.888Z,0.30
2022-09-21T22:51:17.731Z,0.20
2022-09-21T22:53:45.088Z,0.30
2022-09-21T22:56:16.623Z,0.20
2022-09-21T22:58:45.730Z,0.20
2022-09-21T23:01:18.136Z,0.40
2022-09-21T23:03:46.682Z,0.40
2022-09-21T23:06:16.324Z,0.30
2022-09-21T23:08:43.734Z,0.20
2022-09-21T23:11:15.286Z,0.20
2022-09-21T23:13:41.832Z,0.20
2022-09-21T23:16:11.388Z,0.25
2022-09-21T23:18:39.991Z,0.20
2022-09-21T23:21:11.416Z,0.40
2022-09-21T23:23:38.520Z,0.32
2022-09-21T23:26:11.116Z,0.30
2022-09-21T23:28:39.427Z,0.15
2022-09-21T23:31:11.486Z,0.20
2022-09-21T23:33:44.757Z,0.20
2022-09-21T23:36:13.511Z,0.20
2022-09-21T23:38:40.636Z,0.25
2022-09-21T23:41:13.307Z,0.20
2022-09-21T23:43:42.185Z,0.30
2022-09-21T23:46:11.329Z,0.30
2022-09-21T23:48:38.348Z,0.20
2022-09-21T23:51:05.247Z,0.20
2022-09-21T23:53:32.208Z,0.10
2022-09-21T23:55:58.997Z,0.10
2022-09-21T23:58:27.675Z,0.25
